sensor_id;sensor_type;location;lat;lon;timestamp;P1;durP1;ratioP1;P2;durP2;ratioP2
2570;SDS011;1295;51.130;6.732;2022-08-19T00:02:09;70.60;;;18.23;;
2570;SDS011;1295;51.130;6.732;2022-08-19T00:04:36;72.30;;;16.30;;
2570;SDS011;1295;51.130;6.732;2022-08-19T00:07:02;69.70;;;16.33;;
2570;SDS011;1295;51.130;6.732;2022-08-19T00:09:27;66.53;;;17.20;;
2570;SDS011;1295;51.130;6.732;2022-08-19T00:11:53;69.90;;;17.97;;
2570;SDS011;1295;51.130;6.732;2022-08-19T00:14:19;70.23;;;17.30;;
2570;SDS011;1295;51.130;6.732;2022-08-19T00:16:45;71.37;;;16.83;;
2570;SDS011;1295;51.130;6.732;2022-08-19T00:19:10;69.63;;;16.03;;
2570;SDS011;1295;51.130;6.732;2022-08-19T00:21:36;69.23;;;16.10;;
2570;SDS011;1295;51.130;6.732;2022-08-19T00:24:01;69.30;;;16.20;;
2570;SDS011;1295;51.130;6.732;2022-08-19T00:26:28;67.30;;;17.37;;
2570;SDS011;1295;51.130;6.732;2022-08-19T00:28:58;69.50;;;17.60;;
2570;SDS011;1295;51.130;6.732;2022-08-19T00:31:24;70.00;;;16.87;;
2570;SDS011;1295;51.130;6.732;2022-08-19T00:33:50;68.97;;;15.60;;
2570;SDS011;1295;51.130;6.732;2022-08-19T00:36:16;67.17;;;17.00;;
2570;SDS011;1295;51.130;6.732;2022-08-19T00:38:41;70.13;;;15.90;;
2570;SDS011;1295;51.130;6.732;2022-08-19T00:41:07;67.67;;;16.50;;
2570;SDS011;1295;51.130;6.732;2022-08-19T00:43:33;72.20;;;17.10;;
2570;SDS011;1295;51.130;6.732;2022-08-19T00:45:58;71.43;;;17.00;;
2570;SDS011;1295;51.130;6.732;2022-08-19T00:48:24;68.70;;;17.33;;
2570;SDS011;1295;51.130;6.732;2022-08-19T00:50:50;68.50;;;17.80;;
2570;SDS011;1295;51.130;6.732;2022-08-19T00:53:18;67.37;;;15.93;;
2570;SDS011;1295;51.130;6.732;2022-08-19T00:55:42;69.07;;;17.43;;
2570;SDS011;1295;51.130;6.732;2022-08-19T00:58:08;68.20;;;17.27;;
2570;SDS011;1295;51.130;6.732;2022-08-19T01:00:33;72.70;;;16.07;;
2570;SDS011;1295;51.130;6.732;2022-08-19T01:02:59;70.73;;;16.80;;
2570;SDS011;1295;51.130;6.732;2022-08-19T01:05:26;70.97;;;17.47;;
2570;SDS011;1295;51.130;6.732;2022-08-19T01:07:50;70.80;;;18.80;;
2570;SDS011;1295;51.130;6.732;2022-08-19T01:10:17;71.87;;;19.67;;
2570;SDS011;1295;51.130;6.732;2022-08-19T01:12:42;69.70;;;18.10;;
2570;SDS011;1295;51.130;6.732;2022-08-19T01:15:09;69.57;;;18.60;;
2570;SDS011;1295;51.130;6.732;2022-08-19T01:17:34;71.00;;;18.40;;
2570;SDS011;1295;51.130;6.732;2022-08-19T01:19:59;71.10;;;20.00;;
2570;SDS011;1295;51.130;6.732;2022-08-19T01:22:29;69.20;;;17.70;;
2570;SDS011;1295;51.130;6.732;2022-08-19T01:24:56;77.67;;;19.03;;
2570;SDS011;1295;51.130;6.732;2022-08-19T01:27:22;71.60;;;18.23;;
2570;SDS011;1295;51.130;6.732;2022-08-19T01:29:48;76.90;;;20.80;;
2570;SDS011;1295;51.130;6.732;2022-08-19T01:32:14;76.00;;;20.50;;
2570;SDS011;1295;51.130;6.732;2022-08-19T01:34:40;89.37;;;28.97;;
2570;SDS011;1295;51.130;6.732;2022-08-19T01:37:08;83.47;;;28.83;;
2570;SDS011;1295;51.130;6.732;2022-08-19T01:39:41;77.53;;;23.50;;
2570;SDS011;1295;51.130;6.732;2022-08-19T01:42:07;83.93;;;28.63;;
2570;SDS011;1295;51.130;6.732;2022-08-19T01:44:32;81.20;;;24.83;;
2570;SDS011;1295;51.130;6.732;2022-08-19T01:46:58;74.10;;;21.87;;
2570;SDS011;1295;51.130;6.732;2022-08-19T01:49:29;76.80;;;23.80;;
2570;SDS011;1295;51.130;6.732;2022-08-19T01:51:55;73.77;;;21.63;;
2570;SDS011;1295;51.130;6.732;2022-08-19T01:54:22;79.57;;;21.53;;
2570;SDS011;1295;51.130;6.732;2022-08-19T01:56:46;72.50;;;21.80;;
2570;SDS011;1295;51.130;6.732;2022-08-19T01:59:14;75.43;;;21.33;;
2570;SDS011;1295;51.130;6.732;2022-08-19T02:01:39;75.93;;;21.13;;
2570;SDS011;1295;51.130;6.732;2022-08-19T02:04:05;84.80;;;28.50;;
2570;SDS011;1295;51.130;6.732;2022-08-19T02:06:31;76.37;;;24.70;;
2570;SDS011;1295;51.130;6.732;2022-08-19T02:08:56;85.40;;;25.30;;
2570;SDS011;1295;51.130;6.732;2022-08-19T02:11:24;81.83;;;23.20;;
2570;SDS011;1295;51.130;6.732;2022-08-19T02:13:48;74.47;;;22.40;;
2570;SDS011;1295;51.130;6.732;2022-08-19T02:16:15;74.87;;;20.33;;
2570;SDS011;1295;51.130;6.732;2022-08-19T02:18:40;73.30;;;19.73;;
2570;SDS011;1295;51.130;6.732;2022-08-19T02:21:06;72.87;;;20.70;;
2570;SDS011;1295;51.130;6.732;2022-08-19T02:23:32;75.00;;;21.83;;
2570;SDS011;1295;51.130;6.732;2022-08-19T02:25:58;72.40;;;22.13;;
2570;SDS011;1295;51.130;6.732;2022-08-19T02:28:34;73.90;;;23.50;;
2570;SDS011;1295;51.130;6.732;2022-08-19T02:31:00;74.33;;;23.50;;
2570;SDS011;1295;51.130;6.732;2022-08-19T02:33:26;80.60;;;23.93;;
2570;SDS011;1295;51.130;6.732;2022-08-19T02:35:51;75.80;;;23.60;;
2570;SDS011;1295;51.130;6.732;2022-08-19T02:38:17;78.33;;;23.57;;
2570;SDS011;1295;51.130;6.732;2022-08-19T02:40:50;78.83;;;24.10;;
2570;SDS011;1295;51.130;6.732;2022-08-19T02:43:15;80.77;;;23.27;;
2570;SDS011;1295;51.130;6.732;2022-08-19T02:45:41;82.33;;;22.73;;
2570;SDS011;1295;51.130;6.732;2022-08-19T02:48:07;84.97;;;24.23;;
2570;SDS011;1295;51.130;6.732;2022-08-19T02:50:32;85.07;;;25.23;;
2570;SDS011;1295;51.130;6.732;2022-08-19T02:52:58;86.63;;;27.30;;
2570;SDS011;1295;51.130;6.732;2022-08-19T02:55:42;82.37;;;26.03;;
2570;SDS011;1295;51.130;6.732;2022-08-19T02:58:07;83.23;;;24.20;;
2570;SDS011;1295;51.130;6.732;2022-08-19T03:00:33;82.13;;;24.17;;
2570;SDS011;1295;51.130;6.732;2022-08-19T03:02:58;82.97;;;28.33;;
2570;SDS011;1295;51.130;6.732;2022-08-19T03:05:24;83.30;;;24.83;;
2570;SDS011;1295;51.130;6.732;2022-08-19T03:07:50;77.43;;;23.80;;
2570;SDS011;1295;51.130;6.732;2022-08-19T03:10:15;85.57;;;24.30;;
2570;SDS011;1295;51.130;6.732;2022-08-19T03:12:41;78.70;;;25.40;;
2570;SDS011;1295;51.130;6.732;2022-08-19T03:15:08;87.30;;;24.53;;
2570;SDS011;1295;51.130;6.732;2022-08-19T03:17:34;78.83;;;24.10;;
2570;SDS011;1295;51.130;6.732;2022-08-19T03:20:00;81.80;;;25.23;;
2570;SDS011;1295;51.130;6.732;2022-08-19T03:22:26;80.40;;;23.90;;
2570;SDS011;1295;51.130;6.732;2022-08-19T03:24:52;84.30;;;25.80;;
2570;SDS011;1295;51.130;6.732;2022-08-19T03:27:18;84.57;;;25.60;;
2570;SDS011;1295;51.130;6.732;2022-08-19T03:29:43;84.00;;;25.13;;
2570;SDS011;1295;51.130;6.732;2022-08-19T03:32:09;87.37;;;24.90;;
2570;SDS011;1295;51.130;6.732;2022-08-19T03:34:36;79.77;;;25.90;;
2570;SDS011;1295;51.130;6.732;2022-08-19T03:37:03;81.33;;;26.40;;
2570;SDS011;1295;51.130;6.732;2022-08-19T03:39:29;86.13;;;31.17;;
2570;SDS011;1295;51.130;6.732;2022-08-19T03:41:54;90.87;;;35.03;;
2570;SDS011;1295;51.130;6.732;2022-08-19T03:44:21;106.13;;;35.03;;
2570;SDS011;1295;51.130;6.732;2022-08-19T03:46:49;97.07;;;37.07;;
2570;SDS011;1295;51.130;6.732;2022-08-19T03:49:13;89.57;;;29.43;;
2570;SDS011;1295;51.130;6.732;2022-08-19T03:51:39;104.67;;;40.10;;
2570;SDS011;1295;51.130;6.732;2022-08-19T03:54:06;97.80;;;33.80;;
2570;SDS011;1295;51.130;6.732;2022-08-19T03:56:32;105.20;;;40.00;;
2570;SDS011;1295;51.130;6.732;2022-08-19T03:58:57;104.23;;;42.33;;
2570;SDS011;1295;51.130;6.732;2022-08-19T04:01:24;98.57;;;36.90;;
2570;SDS011;1295;51.130;6.732;2022-08-19T04:03:48;104.23;;;39.73;;
2570;SDS011;1295;51.130;6.732;2022-08-19T04:06:16;103.57;;;40.40;;
2570;SDS011;1295;51.130;6.732;2022-08-19T04:08:41;102.60;;;39.27;;
2570;SDS011;1295;51.130;6.732;2022-08-19T04:11:08;101.17;;;40.00;;
2570;SDS011;1295;51.130;6.732;2022-08-19T04:13:34;110.97;;;43.80;;
2570;SDS011;1295;51.130;6.732;2022-08-19T04:15:59;111.30;;;40.40;;
2570;SDS011;1295;51.130;6.732;2022-08-19T04:18:25;102.83;;;39.40;;
2570;SDS011;1295;51.130;6.732;2022-08-19T04:20:51;103.37;;;40.57;;
2570;SDS011;1295;51.130;6.732;2022-08-19T04:23:17;102.23;;;38.07;;
2570;SDS011;1295;51.130;6.732;2022-08-19T04:25:43;104.17;;;41.00;;
2570;SDS011;1295;51.130;6.732;2022-08-19T04:28:10;99.00;;;38.07;;
2570;SDS011;1295;51.130;6.732;2022-08-19T04:30:40;104.50;;;41.53;;
2570;SDS011;1295;51.130;6.732;2022-08-19T04:33:06;103.97;;;41.10;;
2570;SDS011;1295;51.130;6.732;2022-08-19T04:35:36;103.57;;;40.97;;
2570;SDS011;1295;51.130;6.732;2022-08-19T04:38:01;104.17;;;40.27;;
2570;SDS011;1295;51.130;6.732;2022-08-19T04:40:27;107.13;;;44.07;;
2570;SDS011;1295;51.130;6.732;2022-08-19T04:42:59;103.60;;;42.57;;
2570;SDS011;1295;51.130;6.732;2022-08-19T04:45:35;111.07;;;41.80;;
2570;SDS011;1295;51.130;6.732;2022-08-19T04:48:00;109.40;;;43.70;;
2570;SDS011;1295;51.130;6.732;2022-08-19T04:50:26;105.20;;;41.83;;
2570;SDS011;1295;51.130;6.732;2022-08-19T04:52:52;102.27;;;37.23;;
2570;SDS011;1295;51.130;6.732;2022-08-19T04:55:17;110.40;;;43.07;;
2570;SDS011;1295;51.130;6.732;2022-08-19T04:57:43;104.57;;;41.57;;
2570;SDS011;1295;51.130;6.732;2022-08-19T05:00:10;110.43;;;44.63;;
2570;SDS011;1295;51.130;6.732;2022-08-19T05:02:36;117.97;;;44.07;;
2570;SDS011;1295;51.130;6.732;2022-08-19T05:05:02;112.23;;;42.70;;
2570;SDS011;1295;51.130;6.732;2022-08-19T05:07:28;117.90;;;44.80;;
2570;SDS011;1295;51.130;6.732;2022-08-19T05:09:54;110.63;;;42.30;;
2570;SDS011;1295;51.130;6.732;2022-08-19T05:12:20;114.70;;;46.03;;
2570;SDS011;1295;51.130;6.732;2022-08-19T05:14:46;115.93;;;48.60;;
2570;SDS011;1295;51.130;6.732;2022-08-19T05:17:13;107.97;;;39.87;;
2570;SDS011;1295;51.130;6.732;2022-08-19T05:19:38;120.73;;;54.17;;
2570;SDS011;1295;51.130;6.732;2022-08-19T05:22:10;126.60;;;52.17;;
2570;SDS011;1295;51.130;6.732;2022-08-19T05:24:42;131.80;;;54.53;;
2570;SDS011;1295;51.130;6.732;2022-08-19T05:27:07;132.10;;;70.67;;
2570;SDS011;1295;51.130;6.732;2022-08-19T05:29:33;117.33;;;56.27;;
2570;SDS011;1295;51.130;6.732;2022-08-19T05:32:00;130.17;;;70.70;;
2570;SDS011;1295;51.130;6.732;2022-08-19T05:34:26;130.03;;;72.10;;
2570;SDS011;1295;51.130;6.732;2022-08-19T05:36:53;172.27;;;147.40;;
2570;SDS011;1295;51.130;6.732;2022-08-19T05:39:19;184.93;;;160.70;;
2570;SDS011;1295;51.130;6.732;2022-08-19T05:41:44;176.87;;;153.33;;
2570;SDS011;1295;51.130;6.732;2022-08-19T05:44:09;132.03;;;113.27;;
2570;SDS011;1295;51.130;6.732;2022-08-19T05:46:36;234.07;;;214.67;;
2570;SDS011;1295;51.130;6.732;2022-08-19T05:49:01;234.33;;;215.30;;
2570;SDS011;1295;51.130;6.732;2022-08-19T05:51:27;372.23;;;345.93;;
2570;SDS011;1295;51.130;6.732;2022-08-19T05:53:52;416.80;;;388.23;;
2570;SDS011;1295;51.130;6.732;2022-08-19T05:56:18;215.23;;;195.93;;
2570;SDS011;1295;51.130;6.732;2022-08-19T05:58:44;191.77;;;175.70;;
2570;SDS011;1295;51.130;6.732;2022-08-19T06:01:10;215.47;;;196.27;;
2570;SDS011;1295;51.130;6.732;2022-08-19T06:03:36;219.50;;;200.83;;
2570;SDS011;1295;51.130;6.732;2022-08-19T06:06:01;194.97;;;177.07;;
2570;SDS011;1295;51.130;6.732;2022-08-19T06:08:26;138.27;;;124.27;;
2570;SDS011;1295;51.130;6.732;2022-08-19T06:10:52;163.07;;;145.90;;
2570;SDS011;1295;51.130;6.732;2022-08-19T06:13:18;201.03;;;181.40;;
2570;SDS011;1295;51.130;6.732;2022-08-19T06:15:44;214.20;;;195.13;;
2570;SDS011;1295;51.130;6.732;2022-08-19T06:18:10;141.80;;;110.00;;
2570;SDS011;1295;51.130;6.732;2022-08-19T06:20:36;152.23;;;108.60;;
2570;SDS011;1295;51.130;6.732;2022-08-19T06:23:01;148.90;;;95.73;;
2570;SDS011;1295;51.130;6.732;2022-08-19T06:25:27;151.80;;;113.23;;
2570;SDS011;1295;51.130;6.732;2022-08-19T06:27:54;144.07;;;99.97;;
2570;SDS011;1295;51.130;6.732;2022-08-19T06:30:19;121.90;;;102.73;;
2570;SDS011;1295;51.130;6.732;2022-08-19T06:32:45;134.10;;;107.53;;
2570;SDS011;1295;51.130;6.732;2022-08-19T06:35:11;117.20;;;89.33;;
2570;SDS011;1295;51.130;6.732;2022-08-19T06:37:37;173.87;;;155.87;;
2570;SDS011;1295;51.130;6.732;2022-08-19T06:40:03;277.03;;;253.93;;
2570;SDS011;1295;51.130;6.732;2022-08-19T06:42:30;148.93;;;131.70;;
2570;SDS011;1295;51.130;6.732;2022-08-19T06:44:55;228.93;;;209.07;;
2570;SDS011;1295;51.130;6.732;2022-08-19T06:47:21;228.37;;;208.40;;
2570;SDS011;1295;51.130;6.732;2022-08-19T06:49:47;190.37;;;172.13;;
2570;SDS011;1295;51.130;6.732;2022-08-19T06:52:13;156.17;;;139.67;;
2570;SDS011;1295;51.130;6.732;2022-08-19T06:54:39;136.53;;;108.67;;
2570;SDS011;1295;51.130;6.732;2022-08-19T06:57:05;99.23;;;64.20;;
2570;SDS011;1295;51.130;6.732;2022-08-19T06:59:31;122.83;;;77.57;;
2570;SDS011;1295;51.130;6.732;2022-08-19T07:01:56;123.17;;;78.27;;
2570;SDS011;1295;51.130;6.732;2022-08-19T07:04:23;115.83;;;85.33;;
2570;SDS011;1295;51.130;6.732;2022-08-19T07:06:47;130.13;;;90.63;;
2570;SDS011;1295;51.130;6.732;2022-08-19T07:09:14;95.63;;;54.33;;
2570;SDS011;1295;51.130;6.732;2022-08-19T07:11:38;119.70;;;69.60;;
2570;SDS011;1295;51.130;6.732;2022-08-19T07:14:04;117.70;;;63.50;;
2570;SDS011;1295;51.130;6.732;2022-08-19T07:16:30;129.03;;;74.33;;
2570;SDS011;1295;51.130;6.732;2022-08-19T07:18:56;93.50;;;43.93;;
2570;SDS011;1295;51.130;6.732;2022-08-19T07:21:23;139.00;;;118.30;;
2570;SDS011;1295;51.130;6.732;2022-08-19T07:23:48;103.93;;;62.97;;
2570;SDS011;1295;51.130;6.732;2022-08-19T07:26:16;88.97;;;52.00;;
2570;SDS011;1295;51.130;6.732;2022-08-19T07:28:40;96.60;;;45.40;;
2570;SDS011;1295;51.130;6.732;2022-08-19T07:31:07;85.73;;;43.60;;
2570;SDS011;1295;51.130;6.732;2022-08-19T07:33:33;133.60;;;105.20;;
2570;SDS011;1295;51.130;6.732;2022-08-19T07:35:58;116.40;;;65.83;;
2570;SDS011;1295;51.130;6.732;2022-08-19T07:38:24;169.43;;;154.73;;
2570;SDS011;1295;51.130;6.732;2022-08-19T07:40:50;129.07;;;77.63;;
2570;SDS011;1295;51.130;6.732;2022-08-19T07:43:16;104.93;;;60.43;;
2570;SDS011;1295;51.130;6.732;2022-08-19T07:45:41;143.40;;;104.37;;
2570;SDS011;1295;51.130;6.732;2022-08-19T07:48:07;152.87;;;111.63;;
2570;SDS011;1295;51.130;6.732;2022-08-19T07:50:33;192.33;;;175.77;;
2570;SDS011;1295;51.130;6.732;2022-08-19T07:52:58;154.97;;;138.63;;
2570;SDS011;1295;51.130;6.732;2022-08-19T07:55:25;172.20;;;127.53;;
2570;SDS011;1295;51.130;6.732;2022-08-19T07:57:50;226.30;;;205.03;;
2570;SDS011;1295;51.130;6.732;2022-08-19T08:00:16;120.67;;;75.17;;
2570;SDS011;1295;51.130;6.732;2022-08-19T08:02:41;109.43;;;38.77;;
2570;SDS011;1295;51.130;6.732;2022-08-19T08:05:07;153.33;;;82.73;;
2570;SDS011;1295;51.130;6.732;2022-08-19T08:07:39;160.70;;;95.47;;
2570;SDS011;1295;51.130;6.732;2022-08-19T08:10:11;150.70;;;86.20;;
2570;SDS011;1295;51.130;6.732;2022-08-19T08:12:38;106.83;;;56.47;;
2570;SDS011;1295;51.130;6.732;2022-08-19T08:15:04;122.70;;;82.43;;
2570;SDS011;1295;51.130;6.732;2022-08-19T08:17:28;129.37;;;71.77;;
2570;SDS011;1295;51.130;6.732;2022-08-19T08:19:54;152.83;;;96.20;;
2570;SDS011;1295;51.130;6.732;2022-08-19T08:22:21;137.03;;;100.43;;
2570;SDS011;1295;51.130;6.732;2022-08-19T08:24:52;138.33;;;80.57;;
2570;SDS011;1295;51.130;6.732;2022-08-19T08:27:18;136.47;;;74.70;;
2570;SDS011;1295;51.130;6.732;2022-08-19T08:29:44;129.23;;;56.70;;
2570;SDS011;1295;51.130;6.732;2022-08-19T08:32:10;136.80;;;92.37;;
2570;SDS011;1295;51.130;6.732;2022-08-19T08:34:36;135.70;;;77.87;;
2570;SDS011;1295;51.130;6.732;2022-08-19T08:37:02;102.73;;;42.93;;
2570;SDS011;1295;51.130;6.732;2022-08-19T08:39:27;109.30;;;55.93;;
2570;SDS011;1295;51.130;6.732;2022-08-19T08:42:13;99.23;;;56.53;;
2570;SDS011;1295;51.130;6.732;2022-08-19T08:44:40;110.23;;;51.87;;
2570;SDS011;1295;51.130;6.732;2022-08-19T08:47:04;131.70;;;75.83;;
2570;SDS011;1295;51.130;6.732;2022-08-19T08:50:04;125.57;;;68.73;;
2570;SDS011;1295;51.130;6.732;2022-08-19T08:52:22;137.73;;;63.93;;
2570;SDS011;1295;51.130;6.732;2022-08-19T08:54:47;109.87;;;64.57;;
2570;SDS011;1295;51.130;6.732;2022-08-19T08:57:14;117.53;;;66.93;;
2570;SDS011;1295;51.130;6.732;2022-08-19T08:59:39;133.53;;;64.93;;
2570;SDS011;1295;51.130;6.732;2022-08-19T09:02:04;111.23;;;62.77;;
2570;SDS011;1295;51.130;6.732;2022-08-19T09:04:30;90.50;;;39.47;;
2570;SDS011;1295;51.130;6.732;2022-08-19T09:07:01;113.93;;;63.97;;
2570;SDS011;1295;51.130;6.732;2022-08-19T09:09:41;105.50;;;73.77;;
2570;SDS011;1295;51.130;6.732;2022-08-19T09:12:10;94.47;;;39.33;;
2570;SDS011;1295;51.130;6.732;2022-08-19T09:14:39;88.10;;;34.50;;
2570;SDS011;1295;51.130;6.732;2022-08-19T09:17:05;91.07;;;35.93;;
2570;SDS011;1295;51.130;6.732;2022-08-19T09:19:31;81.60;;;33.17;;
2570;SDS011;1295;51.130;6.732;2022-08-19T09:21:57;96.57;;;55.17;;
2570;SDS011;1295;51.130;6.732;2022-08-19T09:24:23;107.60;;;86.40;;
2570;SDS011;1295;51.130;6.732;2022-08-19T09:26:48;99.30;;;53.73;;
2570;SDS011;1295;51.130;6.732;2022-08-19T09:29:14;88.03;;;42.90;;
2570;SDS011;1295;51.130;6.732;2022-08-19T09:31:40;91.50;;;36.33;;
2570;SDS011;1295;51.130;6.732;2022-08-19T09:34:05;92.03;;;62.43;;
2570;SDS011;1295;51.130;6.732;2022-08-19T09:36:32;97.70;;;80.10;;
2570;SDS011;1295;51.130;6.732;2022-08-19T09:38:58;96.27;;;50.23;;
2570;SDS011;1295;51.130;6.732;2022-08-19T09:41:24;94.70;;;47.67;;
2570;SDS011;1295;51.130;6.732;2022-08-19T09:43:50;87.87;;;38.30;;
2570;SDS011;1295;51.130;6.732;2022-08-19T09:46:19;79.87;;;34.20;;
2570;SDS011;1295;51.130;6.732;2022-08-19T09:48:44;93.80;;;53.83;;
2570;SDS011;1295;51.130;6.732;2022-08-19T09:51:11;100.67;;;77.17;;
2570;SDS011;1295;51.130;6.732;2022-08-19T09:53:37;141.73;;;128.97;;
2570;SDS011;1295;51.130;6.732;2022-08-19T09:56:02;104.07;;;91.80;;
2570;SDS011;1295;51.130;6.732;2022-08-19T09:58:28;91.07;;;55.83;;
2570;SDS011;1295;51.130;6.732;2022-08-19T10:00:54;96.30;;;78.70;;
2570;SDS011;1295;51.130;6.732;2022-08-19T10:03:20;100.67;;;84.73;;
2570;SDS011;1295;51.130;6.732;2022-08-19T10:05:46;115.57;;;102.13;;
2570;SDS011;1295;51.130;6.732;2022-08-19T10:08:16;107.03;;;95.37;;
2570;SDS011;1295;51.130;6.732;2022-08-19T10:10:43;109.57;;;80.40;;
2570;SDS011;1295;51.130;6.732;2022-08-19T10:13:09;144.37;;;130.87;;
2570;SDS011;1295;51.130;6.732;2022-08-19T10:15:34;125.83;;;106.57;;
2570;SDS011;1295;51.130;6.732;2022-08-19T10:18:00;141.67;;;100.43;;
2570;SDS011;1295;51.130;6.732;2022-08-19T10:20:26;255.40;;;236.67;;
2570;SDS011;1295;51.130;6.732;2022-08-19T10:22:52;271.67;;;223.63;;
2570;SDS011;1295;51.130;6.732;2022-08-19T10:25:18;146.40;;;115.23;;
2570;SDS011;1295;51.130;6.732;2022-08-19T10:27:43;165.77;;;150.90;;
2570;SDS011;1295;51.130;6.732;2022-08-19T10:30:09;220.97;;;203.37;;
2570;SDS011;1295;51.130;6.732;2022-08-19T10:32:36;180.90;;;165.43;;
2570;SDS011;1295;51.130;6.732;2022-08-19T10:35:03;239.40;;;222.10;;
2570;SDS011;1295;51.130;6.732;2022-08-19T10:37:29;155.23;;;140.23;;
2570;SDS011;1295;51.130;6.732;2022-08-19T10:39:55;184.40;;;167.93;;
2570;SDS011;1295;51.130;6.732;2022-08-19T10:42:21;173.23;;;157.60;;
2570;SDS011;1295;51.130;6.732;2022-08-19T10:44:47;195.93;;;179.20;;
2570;SDS011;1295;51.130;6.732;2022-08-19T10:47:13;127.90;;;114.30;;
2570;SDS011;1295;51.130;6.732;2022-08-19T10:49:38;144.07;;;130.17;;
2570;SDS011;1295;51.130;6.732;2022-08-19T10:52:04;148.00;;;133.63;;
2570;SDS011;1295;51.130;6.732;2022-08-19T10:54:36;182.70;;;167.17;;
2570;SDS011;1295;51.130;6.732;2022-08-19T10:57:08;268.23;;;249.17;;
2570;SDS011;1295;51.130;6.732;2022-08-19T10:59:35;148.50;;;134.57;;
2570;SDS011;1295;51.130;6.732;2022-08-19T11:02:00;181.80;;;166.30;;
2570;SDS011;1295;51.130;6.732;2022-08-19T11:04:26;228.93;;;211.83;;
2570;SDS011;1295;51.130;6.732;2022-08-19T11:06:52;416.33;;;391.67;;
2570;SDS011;1295;51.130;6.732;2022-08-19T11:09:20;221.07;;;203.83;;
2570;SDS011;1295;51.130;6.732;2022-08-19T11:11:44;259.17;;;241.30;;
2570;SDS011;1295;51.130;6.732;2022-08-19T11:14:11;356.23;;;334.13;;
2570;SDS011;1295;51.130;6.732;2022-08-19T11:19:09;207.40;;;191.17;;
2570;SDS011;1295;51.130;6.732;2022-08-19T11:21:34;234.47;;;217.50;;
2570;SDS011;1295;51.130;6.732;2022-08-19T11:24:01;120.83;;;108.10;;
2570;SDS011;1295;51.130;6.732;2022-08-19T11:26:26;163.57;;;149.40;;
2570;SDS011;1295;51.130;6.732;2022-08-19T11:28:51;196.10;;;179.97;;
2570;SDS011;1295;51.130;6.732;2022-08-19T11:31:19;253.73;;;236.10;;
2570;SDS011;1295;51.130;6.732;2022-08-19T11:33:43;178.77;;;163.97;;
2570;SDS011;1295;51.130;6.732;2022-08-19T11:36:08;204.20;;;188.43;;
2570;SDS011;1295;51.130;6.732;2022-08-19T11:38:35;123.00;;;108.03;;
2570;SDS011;1295;51.130;6.732;2022-08-19T11:41:02;99.53;;;68.03;;
2570;SDS011;1295;51.130;6.732;2022-08-19T11:43:27;100.73;;;65.00;;
2570;SDS011;1295;51.130;6.732;2022-08-19T11:45:53;124.67;;;111.77;;
2570;SDS011;1295;51.130;6.732;2022-08-19T11:48:18;159.03;;;145.27;;
2570;SDS011;1295;51.130;6.732;2022-08-19T11:50:44;129.77;;;115.20;;
2570;SDS011;1295;51.130;6.732;2022-08-19T11:53:10;192.70;;;177.67;;
2570;SDS011;1295;51.130;6.732;2022-08-19T11:55:37;182.73;;;167.50;;
2570;SDS011;1295;51.130;6.732;2022-08-19T11:58:01;150.83;;;137.20;;
2570;SDS011;1295;51.130;6.732;2022-08-19T12:00:27;133.60;;;120.23;;
2570;SDS011;1295;51.130;6.732;2022-08-19T12:02:53;131.73;;;118.83;;
2570;SDS011;1295;51.130;6.732;2022-08-19T12:05:19;131.83;;;118.53;;
2570;SDS011;1295;51.130;6.732;2022-08-19T12:07:44;186.87;;;172.00;;
2570;SDS011;1295;51.130;6.732;2022-08-19T12:10:10;230.87;;;214.73;;
2570;SDS011;1295;51.130;6.732;2022-08-19T12:12:36;288.40;;;269.80;;
2570;SDS011;1295;51.130;6.732;2022-08-19T12:15:01;329.47;;;308.43;;
2570;SDS011;1295;51.130;6.732;2022-08-19T12:17:27;283.37;;;264.07;;
2570;SDS011;1295;51.130;6.732;2022-08-19T12:19:53;120.67;;;104.47;;
2570;SDS011;1295;51.130;6.732;2022-08-19T12:22:19;197.50;;;181.53;;
2570;SDS011;1295;51.130;6.732;2022-08-19T12:24:45;242.73;;;226.00;;
2570;SDS011;1295;51.130;6.732;2022-08-19T12:27:21;259.20;;;241.47;;
2570;SDS011;1295;51.130;6.732;2022-08-19T12:29:47;103.87;;;79.63;;
2570;SDS011;1295;51.130;6.732;2022-08-19T12:32:13;358.23;;;337.00;;
2570;SDS011;1295;51.130;6.732;2022-08-19T12:34:38;374.67;;;353.17;;
2570;SDS011;1295;51.130;6.732;2022-08-19T12:37:05;125.53;;;113.93;;
2570;SDS011;1295;51.130;6.732;2022-08-19T12:39:29;91.20;;;69.73;;
2570;SDS011;1295;51.130;6.732;2022-08-19T12:41:55;133.50;;;121.37;;
2570;SDS011;1295;51.130;6.732;2022-08-19T12:44:22;85.07;;;43.60;;
2570;SDS011;1295;51.130;6.732;2022-08-19T12:46:46;108.13;;;97.03;;
2570;SDS011;1295;51.130;6.732;2022-08-19T12:49:12;83.40;;;41.97;;
2570;SDS011;1295;51.130;6.732;2022-08-19T12:51:38;164.03;;;150.27;;
2570;SDS011;1295;51.130;6.732;2022-08-19T12:54:04;97.17;;;80.23;;
2570;SDS011;1295;51.130;6.732;2022-08-19T12:56:30;70.37;;;23.83;;
2570;SDS011;1295;51.130;6.732;2022-08-19T12:58:55;170.83;;;157.97;;
2570;SDS011;1295;51.130;6.732;2022-08-19T13:01:21;98.90;;;85.40;;
2570;SDS011;1295;51.130;6.732;2022-08-19T13:03:47;76.43;;;39.03;;
2570;SDS011;1295;51.130;6.732;2022-08-19T13:06:12;118.37;;;106.47;;
2570;SDS011;1295;51.130;6.732;2022-08-19T13:08:38;86.50;;;66.50;;
2570;SDS011;1295;51.130;6.732;2022-08-19T13:11:06;116.47;;;105.13;;
2570;SDS011;1295;51.130;6.732;2022-08-19T13:13:32;80.43;;;52.30;;
2570;SDS011;1295;51.130;6.732;2022-08-19T13:16:00;84.90;;;34.57;;
2570;SDS011;1295;51.130;6.732;2022-08-19T13:18:23;144.60;;;132.10;;
2570;SDS011;1295;51.130;6.732;2022-08-19T13:20:49;149.97;;;137.43;;
2570;SDS011;1295;51.130;6.732;2022-08-19T13:23:15;68.83;;;23.20;;
2570;SDS011;1295;51.130;6.732;2022-08-19T13:25:41;72.50;;;20.03;;
2570;SDS011;1295;51.130;6.732;2022-08-19T13:28:06;72.80;;;32.03;;
2570;SDS011;1295;51.130;6.732;2022-08-19T13:30:32;69.00;;;20.50;;
2570;SDS011;1295;51.130;6.732;2022-08-19T13:33:04;75.93;;;24.77;;
2570;SDS011;1295;51.130;6.732;2022-08-19T13:35:36;97.43;;;80.23;;
2570;SDS011;1295;51.130;6.732;2022-08-19T13:38:09;97.40;;;85.53;;
2570;SDS011;1295;51.130;6.732;2022-08-19T13:40:35;70.83;;;19.17;;
2570;SDS011;1295;51.130;6.732;2022-08-19T13:43:02;72.80;;;26.03;;
2570;SDS011;1295;51.130;6.732;2022-08-19T13:45:28;76.17;;;35.73;;
2570;SDS011;1295;51.130;6.732;2022-08-19T13:47:54;68.73;;;20.53;;
2570;SDS011;1295;51.130;6.732;2022-08-19T13:50:20;65.93;;;16.40;;
2570;SDS011;1295;51.130;6.732;2022-08-19T13:52:44;66.23;;;16.97;;
2570;SDS011;1295;51.130;6.732;2022-08-19T13:55:10;125.07;;;113.67;;
2570;SDS011;1295;51.130;6.732;2022-08-19T13:57:36;78.23;;;37.57;;
2570;SDS011;1295;51.130;6.732;2022-08-19T14:00:02;64.93;;;13.07;;
2570;SDS011;1295;51.130;6.732;2022-08-19T14:02:27;66.57;;;12.27;;
2570;SDS011;1295;51.130;6.732;2022-08-19T14:04:53;64.67;;;15.83;;
2570;SDS011;1295;51.130;6.732;2022-08-19T14:07:18;69.60;;;22.20;;
2570;SDS011;1295;51.130;6.732;2022-08-19T14:09:44;69.47;;;29.07;;
2570;SDS011;1295;51.130;6.732;2022-08-19T14:12:10;79.60;;;41.37;;
2570;SDS011;1295;51.130;6.732;2022-08-19T14:14:38;69.00;;;23.97;;
2570;SDS011;1295;51.130;6.732;2022-08-19T14:17:05;66.07;;;19.13;;
2570;SDS011;1295;51.130;6.732;2022-08-19T14:19:31;68.33;;;21.53;;
2570;SDS011;1295;51.130;6.732;2022-08-19T14:21:57;67.27;;;23.57;;
2570;SDS011;1295;51.130;6.732;2022-08-19T14:24:23;66.10;;;16.00;;
2570;SDS011;1295;51.130;6.732;2022-08-19T14:26:48;79.77;;;42.17;;
2570;SDS011;1295;51.130;6.732;2022-08-19T14:29:15;85.70;;;63.23;;
2570;SDS011;1295;51.130;6.732;2022-08-19T14:31:40;85.40;;;64.30;;
2570;SDS011;1295;51.130;6.732;2022-08-19T14:34:07;132.07;;;120.77;;